createdAt,value
2023-02-01T00:02:49.101Z,78.80
2023-02-01T00:07:51.345Z,78.46
2023-02-01T00:12:54.264Z,78.38
2023-02-01T00:17:56.690Z,78.20
2023-02-01T00:22:58.822Z,77.68
2023-02-01T00:28:01.920Z,77.37
2023-02-01T00:33:04.071Z,78.29
2023-02-01T00:38:06.144Z,78.50
2023-02-01T00:43:08.230Z,77.63
2023-02-01T00:48:10.306Z,76.31
2023-02-01T00:53:12.661Z,76.25
2023-02-01T00:58:15.858Z,76.79
2023-02-01T01:03:20.729Z,77.70
2023-02-01T01:08:22.836Z,77.55
2023-02-01T01:13:25.137Z,77.39
2023-02-01T01:18:27.366Z,78.03
2023-02-01T01:23:29.487Z,78.13
2023-02-01T01:28:31.556Z,78.66
2023-02-01T01:33:33.639Z,79.56
2023-02-01T01:38:36.122Z,80.61
2023-02-01T01:43:54.317Z,81.03
2023-02-01T01:49:17.366Z,80.54
2023-02-01T01:54:24.811Z,83.12
2023-02-01T01:59:28.197Z,80.36
2023-02-01T02:04:30.671Z,77.78
2023-02-01T02:09:32.812Z,74.18
2023-02-01T02:14:35.520Z,72.73
2023-02-01T02:19:43.682Z,73.13
2023-02-01T02:25:13.784Z,72.75
2023-02-01T02:30:46.859Z,74.88
2023-02-01T02:36:08.231Z,73.64
2023-02-01T02:41:47.580Z,75.25
2023-02-01T02:47:11.380Z,74.78
2023-02-01T02:52:37.731Z,75.10
2023-02-01T02:58:01.631Z,76.61
2023-02-01T03:03:23.313Z,77.01
2023-02-01T03:08:27.867Z,78.42
2023-02-01T03:13:51.925Z,76.64
2023-02-01T03:19:12.970Z,77.61
2023-02-01T03:24:34.066Z,75.08
2023-02-01T03:30:02.981Z,74.48
2023-02-01T03:35:06.744Z,73.75
2023-02-01T03:40:14.207Z,73.67
2023-02-01T03:45:32.435Z,74.25
2023-02-01T03:50:39.515Z,73.11
2023-02-01T03:55:42.648Z,72.86
2023-02-01T04:01:01.599Z,72.99
2023-02-01T04:06:03.841Z,72.47
2023-02-01T04:11:05.928Z,72.73
2023-02-01T04:16:08.184Z,73.38
2023-02-01T04:21:10.302Z,73.75
2023-02-01T04:26:12.451Z,74.29
2023-02-01T04:31:15.723Z,74.71
2023-02-01T04:36:20.625Z,73.91
2023-02-01T04:41:23.920Z,74.01
2023-02-01T04:46:26.115Z,74.38
2023-02-01T04:51:28.379Z,75.02
2023-02-01T04:56:30.712Z,74.13
2023-02-01T05:01:32.929Z,74.07
2023-02-01T05:06:35.127Z,74.38
2023-02-01T05:11:55.972Z,74.76
2023-02-01T05:16:58.092Z,75.11
2023-02-01T05:22:00.270Z,75.28
2023-02-01T05:27:02.458Z,76.54
2023-02-01T05:32:20.732Z,76.03
2023-02-01T05:37:24.343Z,76.21
2023-02-01T05:42:26.415Z,76.35
2023-02-01T05:47:28.571Z,76.54
2023-02-01T05:52:30.700Z,77.43
2023-02-01T05:57:32.827Z,77.33
2023-02-01T06:02:34.921Z,77.79
2023-02-01T06:07:37.007Z,77.35
2023-02-01T06:12:39.108Z,78.31
2023-02-01T06:17:42.307Z,78.43
2023-02-01T06:22:44.499Z,77.88
2023-02-01T06:27:46.643Z,77.70
2023-02-01T06:32:54.674Z,76.80
2023-02-01T06:37:59.106Z,76.78
2023-02-01T06:43:01.237Z,77.05
2023-02-01T06:48:03.598Z,76.60
2023-02-01T06:53:05.773Z,77.91
2023-02-01T06:58:07.883Z,77.60
2023-02-01T07:03:10.005Z,76.97
2023-02-01T07:08:12.146Z,75.57
2023-02-01T07:13:14.272Z,76.21
2023-02-01T07:18:16.937Z,75.70
2023-02-01T07:23:19.248Z,75.00
2023-02-01T07:28:21.515Z,73.42
2023-02-01T07:33:27.934Z,72.95
2023-02-01T07:38:30.516Z,71.69
2023-02-01T07:43:34.400Z,70.73
2023-02-01T07:48:37.900Z,69.54
2023-02-01T07:53:40.603Z,68.27
2023-02-01T07:58:43.240Z,67.52
2023-02-01T08:03:45.642Z,65.63
2023-02-01T08:08:49.542Z,64.72
2023-02-01T08:13:52.129Z,64.89
2023-02-01T08:18:55.195Z,64.91
2023-02-01T08:23:57.374Z,65.57
2023-02-01T08:29:02.598Z,65.26
2023-02-01T08:34:05.308Z,65.35
2023-02-01T08:39:10.078Z,65.04
2023-02-01T08:44:12.399Z,64.67
2023-02-01T08:49:14.632Z,64.53
2023-02-01T08:54:16.782Z,65.01
2023-02-01T08:59:19.054Z,64.40
2023-02-01T09:04:21.196Z,62.93
2023-02-01T09:09:24.794Z,61.96
2023-02-01T09:14:26.937Z,61.91
2023-02-01T09:19:29.068Z,61.60
2023-02-01T09:24:31.407Z,59.68
2023-02-01T09:29:33.588Z,59.48
2023-02-01T09:34:36.710Z,58.14
2023-02-01T09:39:38.844Z,58.58
2023-02-01T09:45:14.476Z,57.45
2023-02-01T09:50:23.958Z,60.66
2023-02-01T09:55:50.870Z,61.22
2023-02-01T10:00:56.598Z,59.05
2023-02-01T10:06:07.773Z,47.62
2023-02-01T10:11:25.074Z,40.23
2023-02-01T10:16:52.816Z,40.19
2023-02-01T10:22:00.126Z,51.95
2023-02-01T10:27:23.606Z,42.10
2023-02-01T10:32:32.535Z,46.26
2023-02-01T10:37:35.607Z,37.35
2023-02-01T10:42:37.747Z,35.46
2023-02-01T10:47:39.991Z,32.88
2023-02-01T10:52:49.356Z,34.32
2023-02-01T10:58:21.930Z,36.62
2023-02-01T11:03:36.024Z,36.10
2023-02-01T11:08:51.288Z,45.33
2023-02-01T11:14:15.227Z,38.74
2023-02-01T11:19:18.664Z,47.06
2023-02-01T11:24:27.611Z,50.25
2023-02-01T11:29:37.512Z,54.72
2023-02-01T11:34:45.690Z,54.70
2023-02-01T11:39:59.390Z,58.53
2023-02-01T11:45:25.174Z,64.42
2023-02-01T11:50:29.987Z,69.65
2023-02-01T11:55:57.350Z,74.61
2023-02-01T12:01:05.169Z,75.20
2023-02-01T12:06:32.105Z,81.42
2023-02-01T12:11:41.214Z,77.50
2023-02-01T12:16:52.436Z,76.47
2023-02-01T12:22:16.439Z,77.37
2023-02-01T12:27:24.620Z,77.23
2023-02-01T12:32:38.106Z,79.60
2023-02-01T12:37:47.545Z,81.37
2023-02-01T12:43:26.407Z,88.11
2023-02-01T12:49:06.245Z,91.66
2023-02-01T12:54:27.988Z,93.20
2023-02-01T12:59:37.426Z,94.22
2023-02-01T13:05:19.052Z,95.28
2023-02-01T13:10:42.815Z,95.82
2023-02-01T13:15:56.959Z,94.23
2023-02-01T13:21:17.112Z,88.26
2023-02-01T13:26:19.383Z,88.42
2023-02-01T13:31:52.793Z,86.54
2023-02-01T13:37:25.649Z,87.48
2023-02-01T13:42:50.814Z,87.01
2023-02-01T13:47:57.297Z,88.73
2023-02-01T13:53:16.815Z,89.15
2023-02-01T13:58:36.760Z,89.16
2023-02-01T14:03:47.352Z,88.77
2023-02-01T14:09:13.225Z,77.53
2023-02-01T14:14:16.769Z,71.46
2023-02-01T14:19:26.470Z,61.63
2023-02-01T14:24:38.076Z,56.04
2023-02-01T14:29:43.090Z,69.17
2023-02-01T14:34:48.193Z,76.24
2023-02-01T14:39:56.198Z,79.15
2023-02-01T14:45:20.647Z,79.30
2023-02-01T14:50:42.574Z,81.34
2023-02-01T14:56:13.857Z,82.24
2023-02-01T15:01:27.146Z,81.97
2023-02-01T15:06:52.531Z,76.16
2023-02-01T15:12:15.806Z,75.60
2023-02-01T15:17:22.212Z,75.34
2023-02-01T15:22:25.346Z,76.03
2023-02-01T15:27:29.300Z,76.37
2023-02-01T15:32:41.679Z,78.46
2023-02-01T15:37:43.832Z,78.92
2023-02-01T15:43:04.042Z,79.30
2023-02-01T15:48:23.802Z,79.31
2023-02-01T15:53:32.094Z,77.72
2023-02-01T15:58:35.553Z,78.51
2023-02-01T16:03:42.360Z,76.25
2023-02-01T16:09:15.734Z,74.56
2023-02-01T16:14:17.956Z,74.18
2023-02-01T16:19:21.024Z,76.25
2023-02-01T16:24:25.964Z,77.83
2023-02-01T16:29:28.131Z,79.75
2023-02-01T16:34:30.300Z,78.15
2023-02-01T16:39:34.332Z,78.95
2023-02-01T16:44:36.512Z,77.01
2023-02-01T16:49:41.310Z,78.19
2023-02-01T16:54:43.471Z,79.75
2023-02-01T16:59:45.802Z,79.48
2023-02-01T17:04:49.713Z,79.12
2023-02-01T17:09:51.964Z,81.44
2023-02-01T17:14:54.484Z,84.78
2023-02-01T17:19:58.099Z,86.54
2023-02-01T17:25:00.336Z,82.87
2023-02-01T17:30:04.348Z,80.67
2023-02-01T17:35:14.867Z,80.08
2023-02-01T17:40:17.279Z,84.15
2023-02-01T17:45:37.316Z,84.40
2023-02-01T17:50:40.070Z,85.34
2023-02-01T17:55:44.882Z,85.53
2023-02-01T18:00:48.884Z,86.32
2023-02-01T18:05:53.667Z,82.36
2023-02-01T18:11:01.605Z,79.91
2023-02-01T18:16:04.595Z,76.75
2023-02-01T18:21:06.823Z,73.48
2023-02-01T18:26:12.784Z,72.30
2023-02-01T18:31:25.888Z,71.20
2023-02-01T18:36:31.526Z,71.31
2023-02-01T18:41:36.900Z,70.97
2023-02-01T18:46:39.035Z,71.27
2023-02-01T18:51:42.577Z,70.44
2023-02-01T18:56:44.682Z,71.54
2023-02-01T19:01:46.911Z,71.32
2023-02-01T19:06:49.832Z,72.75
2023-02-01T19:11:51.936Z,71.71
2023-02-01T19:16:54.875Z,72.27
2023-02-01T19:21:57.153Z,73.34
2023-02-01T19:26:59.339Z,71.90
2023-02-01T19:32:01.740Z,71.03
2023-02-01T19:37:03.942Z,70.81
2023-02-01T19:42:07.668Z,70.85
2023-02-01T19:47:10.490Z,70.48
2023-02-01T19:52:12.888Z,69.29
2023-02-01T19:57:14.988Z,69.90
2023-02-01T20:02:16.540Z,68.37
2023-02-01T20:07:18.669Z,67.26
2023-02-01T20:12:20.978Z,66.88
2023-02-01T20:17:23.082Z,66.60
2023-02-01T20:22:25.597Z,66.88
2023-02-01T20:27:28.868Z,67.17
2023-02-01T20:32:30.992Z,66.94
2023-02-01T20:37:36.977Z,67.59
2023-02-01T20:42:40.666Z,69.08
2023-02-01T20:47:43.327Z,72.60
2023-02-01T20:52:45.534Z,74.36
2023-02-01T20:57:47.640Z,76.18
2023-02-01T21:02:50.570Z,76.28
2023-02-01T21:07:52.645Z,77.37
2023-02-01T21:13:04.864Z,77.95
2023-02-01T21:18:09.152Z,76.52
2023-02-01T21:23:11.998Z,76.84
2023-02-01T21:28:14.572Z,76.49
2023-02-01T21:33:16.698Z,76.13
2023-02-01T21:38:18.880Z,76.83
2023-02-01T21:43:21.003Z,75.41
2023-02-01T21:48:23.754Z,75.90
2023-02-01T21:53:26.097Z,76.90
2023-02-01T21:58:28.219Z,77.78
2023-02-01T22:03:30.340Z,78.73
2023-02-01T22:08:39.305Z,78.59
2023-02-01T22:13:41.385Z,80.58
2023-02-01T22:18:45.192Z,80.71
2023-02-01T22:23:55.771Z,79.54
2023-02-01T22:28:57.892Z,82.25
2023-02-01T22:34:00.214Z,76.85
2023-02-01T22:39:02.713Z,73.79
2023-02-01T22:44:05.161Z,72.69
2023-02-01T22:49:07.241Z,73.37
2023-02-01T22:54:23.334Z,71.41
2023-02-01T22:59:25.847Z,71.61
2023-02-01T23:04:27.915Z,71.56
2023-02-01T23:09:30.115Z,72.17
2023-02-01T23:14:34.232Z,73.18
2023-02-01T23:19:36.309Z,73.57
2023-02-01T23:24:38.671Z,75.18
2023-02-01T23:29:41.152Z,75.88
2023-02-01T23:34:43.294Z,78.13
2023-02-01T23:39:45.388Z,79.27
2023-02-01T23:44:47.451Z,78.27
2023-02-01T23:49:49.550Z,79.89
2023-02-01T23:54:51.670Z,80.54
2023-02-01T23:59:53.744Z,81.99
